sensor_id;sensor_type;location;lat;lon;timestamp;pressure;altitude;pressure_sealevel;temperature;humidity
61436;BME280;47304;47.456;19.160;2024-03-08T00:00:13;100610.77;;;4.55;85.24
61436;BME280;47304;47.456;19.160;2024-03-08T00:02:42;100604.92;;;4.56;85.33
61436;BME280;47304;47.456;19.160;2024-03-08T00:05:11;100604.52;;;4.54;85.05
61436;BME280;47304;47.456;19.160;2024-03-08T00:07:39;100606.95;;;4.55;85.27
61436;BME280;47304;47.456;19.160;2024-03-08T00:10:09;100603.89;;;4.56;85.46
61436;BME280;47304;47.456;19.160;2024-03-08T00:12:38;100604.99;;;4.59;85.48
61436;BME280;47304;47.456;19.160;2024-03-08T00:15:09;100604.70;;;4.61;85.44
61436;BME280;47304;47.456;19.160;2024-03-08T00:17:38;100605.20;;;4.60;85.33
61436;BME280;47304;47.456;19.160;2024-03-08T00:20:07;100604.11;;;4.58;85.09
61436;BME280;47304;47.456;19.160;2024-03-08T00:22:36;100603.69;;;4.56;85.23
61436;BME280;47304;47.456;19.160;2024-03-08T00:25:06;100602.95;;;4.53;85.23
61436;BME280;47304;47.456;19.160;2024-03-08T00:27:34;100603.46;;;4.54;85.52
61436;BME280;47304;47.456;19.160;2024-03-08T00:30:03;100600.92;;;4.56;85.81
61436;BME280;47304;47.456;19.160;2024-03-08T00:32:31;100601.49;;;4.58;85.75
61436;BME280;47304;47.456;19.160;2024-03-08T00:34:59;100596.91;;;4.61;85.90
61436;BME280;47304;47.456;19.160;2024-03-08T00:37:28;100594.01;;;4.63;85.88
61436;BME280;47304;47.456;19.160;2024-03-08T00:39:56;100594.77;;;4.65;85.93
61436;BME280;47304;47.456;19.160;2024-03-08T00:42:24;100598.66;;;4.68;85.91
61436;BME280;47304;47.456;19.160;2024-03-08T00:44:52;100596.94;;;4.69;85.87
61436;BME280;47304;47.456;19.160;2024-03-08T00:47:21;100595.09;;;4.71;85.62
61436;BME280;47304;47.456;19.160;2024-03-08T00:49:49;100591.86;;;4.73;85.82
61436;BME280;47304;47.456;19.160;2024-03-08T00:52:17;100590.37;;;4.76;85.88
61436;BME280;47304;47.456;19.160;2024-03-08T00:54:45;100588.88;;;4.79;85.75
61436;BME280;47304;47.456;19.160;2024-03-08T00:57:14;100584.92;;;4.80;85.69
61436;BME280;47304;47.456;19.160;2024-03-08T00:59:42;100585.66;;;4.82;85.55
61436;BME280;47304;47.456;19.160;2024-03-08T01:02:11;100582.71;;;4.82;85.23
61436;BME280;47304;47.456;19.160;2024-03-08T01:04:39;100580.29;;;4.83;85.28
61436;BME280;47304;47.456;19.160;2024-03-08T01:07:08;100582.07;;;4.84;85.26
61436;BME280;47304;47.456;19.160;2024-03-08T01:09:36;100576.83;;;4.83;85.14
61436;BME280;47304;47.456;19.160;2024-03-08T01:12:05;100572.45;;;4.81;84.93
61436;BME280;47304;47.456;19.160;2024-03-08T01:14:33;100568.59;;;4.79;84.74
61436;BME280;47304;47.456;19.160;2024-03-08T01:17:01;100567.85;;;4.78;84.86
61436;BME280;47304;47.456;19.160;2024-03-08T01:19:29;100572.01;;;4.78;85.03
61436;BME280;47304;47.456;19.160;2024-03-08T01:21:57;100568.88;;;4.77;84.91
61436;BME280;47304;47.456;19.160;2024-03-08T01:24:26;100564.16;;;4.76;84.85
61436;BME280;47304;47.456;19.160;2024-03-08T01:26:54;100569.89;;;4.76;84.90
61436;BME280;47304;47.456;19.160;2024-03-08T01:29:22;100574.27;;;4.78;85.05
61436;BME280;47304;47.456;19.160;2024-03-08T01:31:50;100569.80;;;4.79;85.12
61436;BME280;47304;47.456;19.160;2024-03-08T01:34:19;100578.52;;;4.81;84.75
61436;BME280;47304;47.456;19.160;2024-03-08T01:36:47;100578.14;;;4.80;84.66
61436;BME280;47304;47.456;19.160;2024-03-08T01:39:15;100578.31;;;4.80;84.64
61436;BME280;47304;47.456;19.160;2024-03-08T01:41:43;100577.83;;;4.81;84.59
61436;BME280;47304;47.456;19.160;2024-03-08T01:44:12;100575.41;;;4.81;84.35
61436;BME280;47304;47.456;19.160;2024-03-08T01:46:40;100575.52;;;4.79;84.19
61436;BME280;47304;47.456;19.160;2024-03-08T01:49:08;100573.23;;;4.78;84.29
61436;BME280;47304;47.456;19.160;2024-03-08T01:51:37;100571.25;;;4.75;84.21
61436;BME280;47304;47.456;19.160;2024-03-08T01:54:06;100572.41;;;4.73;84.00
61436;BME280;47304;47.456;19.160;2024-03-08T01:56:35;100572.53;;;4.71;84.03
61436;BME280;47304;47.456;19.160;2024-03-08T01:59:03;100570.56;;;4.69;84.09
61436;BME280;47304;47.456;19.160;2024-03-08T02:01:31;100573.09;;;4.66;84.06
61436;BME280;47304;47.456;19.160;2024-03-08T02:04:00;100570.42;;;4.64;83.98
61436;BME280;47304;47.456;19.160;2024-03-08T02:06:29;100568.34;;;4.63;84.08
61436;BME280;47304;47.456;19.160;2024-03-08T02:08:57;100571.79;;;4.63;84.11
61436;BME280;47304;47.456;19.160;2024-03-08T02:11:25;100570.54;;;4.61;84.12
61436;BME280;47304;47.456;19.160;2024-03-08T02:13:53;100574.86;;;4.61;84.22
61436;BME280;47304;47.456;19.160;2024-03-08T02:16:23;100578.48;;;4.60;84.18
61436;BME280;47304;47.456;19.160;2024-03-08T02:18:51;100581.25;;;4.60;84.33
61436;BME280;47304;47.456;19.160;2024-03-08T02:21:19;100580.92;;;4.61;84.25
61436;BME280;47304;47.456;19.160;2024-03-08T02:23:48;100580.23;;;4.61;84.16
61436;BME280;47304;47.456;19.160;2024-03-08T02:26:16;100582.48;;;4.60;84.10
61436;BME280;47304;47.456;19.160;2024-03-08T02:28:45;100580.90;;;4.60;83.85
61436;BME280;47304;47.456;19.160;2024-03-08T02:31:14;100576.55;;;4.59;83.82
61436;BME280;47304;47.456;19.160;2024-03-08T02:33:42;100579.65;;;4.59;83.80
61436;BME280;47304;47.456;19.160;2024-03-08T02:36:11;100579.10;;;4.58;83.84
61436;BME280;47304;47.456;19.160;2024-03-08T02:38:39;100575.78;;;4.57;83.69
61436;BME280;47304;47.456;19.160;2024-03-08T02:41:08;100575.93;;;4.56;83.54
61436;BME280;47304;47.456;19.160;2024-03-08T02:43:36;100572.23;;;4.53;83.45
61436;BME280;47304;47.456;19.160;2024-03-08T02:46:04;100573.97;;;4.53;83.49
61436;BME280;47304;47.456;19.160;2024-03-08T02:48:33;100576.20;;;4.52;83.40
61436;BME280;47304;47.456;19.160;2024-03-08T02:51:01;100574.06;;;4.50;83.51
61436;BME280;47304;47.456;19.160;2024-03-08T02:53:29;100576.99;;;4.50;83.61
61436;BME280;47304;47.456;19.160;2024-03-08T02:55:58;100580.11;;;4.50;83.74
61436;BME280;47304;47.456;19.160;2024-03-08T02:58:27;100579.40;;;4.49;83.56
61436;BME280;47304;47.456;19.160;2024-03-08T03:00:55;100584.92;;;4.48;83.66
61436;BME280;47304;47.456;19.160;2024-03-08T03:03:24;100584.05;;;4.48;83.83
61436;BME280;47304;47.456;19.160;2024-03-08T03:05:52;100583.20;;;4.48;83.86
61436;BME280;47304;47.456;19.160;2024-03-08T03:08:20;100585.08;;;4.47;83.88
61436;BME280;47304;47.456;19.160;2024-03-08T03:10:48;100587.48;;;4.47;83.78
61436;BME280;47304;47.456;19.160;2024-03-08T03:13:16;100586.08;;;4.46;83.70
61436;BME280;47304;47.456;19.160;2024-03-08T03:15:45;100584.10;;;4.44;83.64
61436;BME280;47304;47.456;19.160;2024-03-08T03:18:13;100585.27;;;4.42;83.70
61436;BME280;47304;47.456;19.160;2024-03-08T03:20:42;100584.70;;;4.41;83.81
61436;BME280;47304;47.456;19.160;2024-03-08T03:23:10;100588.23;;;4.43;84.08
61436;BME280;47304;47.456;19.160;2024-03-08T03:25:38;100586.55;;;4.44;84.14
61436;BME280;47304;47.456;19.160;2024-03-08T03:28:07;100589.31;;;4.44;83.87
61436;BME280;47304;47.456;19.160;2024-03-08T03:30:35;100592.42;;;4.43;83.96
61436;BME280;47304;47.456;19.160;2024-03-08T03:33:04;100587.91;;;4.43;83.99
61436;BME280;47304;47.456;19.160;2024-03-08T03:35:32;100592.55;;;4.42;83.91
61436;BME280;47304;47.456;19.160;2024-03-08T03:38:01;100592.39;;;4.42;84.07
61436;BME280;47304;47.456;19.160;2024-03-08T03:40:29;100588.08;;;4.43;84.28
61436;BME280;47304;47.456;19.160;2024-03-08T03:42:57;100589.20;;;4.46;84.22
61436;BME280;47304;47.456;19.160;2024-03-08T03:45:25;100588.86;;;4.46;84.13
61436;BME280;47304;47.456;19.160;2024-03-08T03:47:54;100588.73;;;4.48;84.13
61436;BME280;47304;47.456;19.160;2024-03-08T03:50:22;100585.96;;;4.48;83.98
61436;BME280;47304;47.456;19.160;2024-03-08T03:52:51;100588.21;;;4.47;83.99
61436;BME280;47304;47.456;19.160;2024-03-08T03:55:19;100593.06;;;4.48;83.63
61436;BME280;47304;47.456;19.160;2024-03-08T03:57:48;100594.11;;;4.48;83.81
61436;BME280;47304;47.456;19.160;2024-03-08T04:00:17;100596.21;;;4.48;83.67
61436;BME280;47304;47.456;19.160;2024-03-08T04:02:45;100592.20;;;4.48;83.54
61436;BME280;47304;47.456;19.160;2024-03-08T04:05:14;100594.77;;;4.46;83.44
61436;BME280;47304;47.456;19.160;2024-03-08T04:07:42;100592.80;;;4.44;83.54
61436;BME280;47304;47.456;19.160;2024-03-08T04:10:11;100588.61;;;4.43;83.83
61436;BME280;47304;47.456;19.160;2024-03-08T04:12:39;100589.64;;;4.43;83.68
61436;BME280;47304;47.456;19.160;2024-03-08T04:15:09;100591.83;;;4.41;83.75
61436;BME280;47304;47.456;19.160;2024-03-08T04:17:37;100594.29;;;4.42;83.94
61436;BME280;47304;47.456;19.160;2024-03-08T04:20:06;100593.94;;;4.42;84.02
61436;BME280;47304;47.456;19.160;2024-03-08T04:22:35;100592.59;;;4.43;84.00
61436;BME280;47304;47.456;19.160;2024-03-08T04:25:03;100595.55;;;4.44;83.99
61436;BME280;47304;47.456;19.160;2024-03-08T04:27:32;100595.41;;;4.45;83.81
61436;BME280;47304;47.456;19.160;2024-03-08T04:30:00;100597.83;;;4.44;83.89
61436;BME280;47304;47.456;19.160;2024-03-08T04:32:29;100600.97;;;4.45;84.03
61436;BME280;47304;47.456;19.160;2024-03-08T04:34:57;100598.58;;;4.46;83.95
61436;BME280;47304;47.456;19.160;2024-03-08T04:37:25;100599.09;;;4.46;83.75
61436;BME280;47304;47.456;19.160;2024-03-08T04:39:53;100602.03;;;4.46;83.46
61436;BME280;47304;47.456;19.160;2024-03-08T04:42:21;100599.41;;;4.45;83.07
61436;BME280;47304;47.456;19.160;2024-03-08T04:44:50;100603.66;;;4.42;83.21
61436;BME280;47304;47.456;19.160;2024-03-08T04:47:18;100597.04;;;4.41;83.31
61436;BME280;47304;47.456;19.160;2024-03-08T04:49:46;100603.63;;;4.41;83.23
61436;BME280;47304;47.456;19.160;2024-03-08T04:52:15;100602.88;;;4.38;82.80
61436;BME280;47304;47.456;19.160;2024-03-08T04:54:43;100601.77;;;4.37;82.74
61436;BME280;47304;47.456;19.160;2024-03-08T04:57:11;100604.70;;;4.36;82.47
61436;BME280;47304;47.456;19.160;2024-03-08T04:59:39;100605.70;;;4.34;82.18
61436;BME280;47304;47.456;19.160;2024-03-08T05:02:08;100604.09;;;4.32;82.31
61436;BME280;47304;47.456;19.160;2024-03-08T05:04:36;100605.98;;;4.32;82.25
61436;BME280;47304;47.456;19.160;2024-03-08T05:07:05;100608.92;;;4.32;82.45
61436;BME280;47304;47.456;19.160;2024-03-08T05:09:33;100604.56;;;4.31;82.35
61436;BME280;47304;47.456;19.160;2024-03-08T05:12:01;100609.59;;;4.31;82.31
61436;BME280;47304;47.456;19.160;2024-03-08T05:14:29;100605.94;;;4.31;82.31
61436;BME280;47304;47.456;19.160;2024-03-08T05:16:57;100603.89;;;4.32;82.35
61436;BME280;47304;47.456;19.160;2024-03-08T05:19:26;100609.14;;;4.33;82.71
61436;BME280;47304;47.456;19.160;2024-03-08T05:21:54;100610.02;;;4.33;82.43
61436;BME280;47304;47.456;19.160;2024-03-08T05:24:22;100611.73;;;4.32;82.20
61436;BME280;47304;47.456;19.160;2024-03-08T05:26:50;100611.23;;;4.33;82.05
61436;BME280;47304;47.456;19.160;2024-03-08T05:29:19;100612.30;;;4.34;81.96
61436;BME280;47304;47.456;19.160;2024-03-08T05:31:49;100615.46;;;4.36;81.78
61436;BME280;47304;47.456;19.160;2024-03-08T05:34:18;100619.30;;;4.36;81.60
61436;BME280;47304;47.456;19.160;2024-03-08T05:36:46;100621.89;;;4.37;81.59
61436;BME280;47304;47.456;19.160;2024-03-08T05:39:15;100623.30;;;4.37;81.76
61436;BME280;47304;47.456;19.160;2024-03-08T05:41:43;100629.60;;;4.39;81.79
61436;BME280;47304;47.456;19.160;2024-03-08T05:44:12;100624.80;;;4.41;81.83
61436;BME280;47304;47.456;19.160;2024-03-08T05:46:40;100629.02;;;4.43;81.72
61436;BME280;47304;47.456;19.160;2024-03-08T05:49:09;100630.77;;;4.44;81.33
61436;BME280;47304;47.456;19.160;2024-03-08T05:51:38;100633.20;;;4.43;81.07
61436;BME280;47304;47.456;19.160;2024-03-08T05:54:07;100634.23;;;4.43;81.09
61436;BME280;47304;47.456;19.160;2024-03-08T05:56:36;100638.08;;;4.45;81.02
61436;BME280;47304;47.456;19.160;2024-03-08T05:59:06;100643.71;;;4.47;81.07
61436;BME280;47304;47.456;19.160;2024-03-08T06:01:34;100646.69;;;4.48;81.00
61436;BME280;47304;47.456;19.160;2024-03-08T06:04:03;100644.95;;;4.49;80.75
61436;BME280;47304;47.456;19.160;2024-03-08T06:06:32;100645.65;;;4.48;80.71
61436;BME280;47304;47.456;19.160;2024-03-08T06:09:00;100644.51;;;4.51;80.89
61436;BME280;47304;47.456;19.160;2024-03-08T06:11:28;100646.30;;;4.53;80.72
61436;BME280;47304;47.456;19.160;2024-03-08T06:13:57;100642.66;;;4.53;80.66
61436;BME280;47304;47.456;19.160;2024-03-08T06:16:25;100647.72;;;4.54;80.31
61436;BME280;47304;47.456;19.160;2024-03-08T06:18:53;100646.55;;;4.55;80.33
61436;BME280;47304;47.456;19.160;2024-03-08T06:21:21;100645.67;;;4.56;80.15
61436;BME280;47304;47.456;19.160;2024-03-08T06:23:50;100650.52;;;4.55;80.03
61436;BME280;47304;47.456;19.160;2024-03-08T06:26:18;100650.67;;;4.54;80.09
61436;BME280;47304;47.456;19.160;2024-03-08T06:28:46;100652.94;;;4.55;80.18
61436;BME280;47304;47.456;19.160;2024-03-08T06:31:14;100652.08;;;4.55;80.20
61436;BME280;47304;47.456;19.160;2024-03-08T06:33:43;100648.30;;;4.56;80.15
61436;BME280;47304;47.456;19.160;2024-03-08T06:36:11;100651.31;;;4.58;80.21
61436;BME280;47304;47.456;19.160;2024-03-08T06:38:40;100654.43;;;4.58;80.16
61436;BME280;47304;47.456;19.160;2024-03-08T06:41:08;100653.80;;;4.61;80.14
61436;BME280;47304;47.456;19.160;2024-03-08T06:43:36;100658.08;;;4.64;80.31
61436;BME280;47304;47.456;19.160;2024-03-08T06:46:04;100655.77;;;4.68;80.27
61436;BME280;47304;47.456;19.160;2024-03-08T06:48:33;100657.14;;;4.74;80.37
61436;BME280;47304;47.456;19.160;2024-03-08T06:51:01;100662.14;;;4.79;80.21
61436;BME280;47304;47.456;19.160;2024-03-08T06:53:29;100661.86;;;4.82;80.19
61436;BME280;47304;47.456;19.160;2024-03-08T06:55:57;100664.52;;;4.84;79.94
61436;BME280;47304;47.456;19.160;2024-03-08T06:58:26;100666.49;;;4.86;79.58
61436;BME280;47304;47.456;19.160;2024-03-08T07:00:54;100665.25;;;4.85;79.63
61436;BME280;47304;47.456;19.160;2024-03-08T07:03:22;100664.83;;;4.82;79.33
61436;BME280;47304;47.456;19.160;2024-03-08T07:05:50;100665.08;;;4.79;79.32
61436;BME280;47304;47.456;19.160;2024-03-08T07:08:19;100666.11;;;4.78;79.42
61436;BME280;47304;47.456;19.160;2024-03-08T07:10:47;100666.80;;;4.78;79.70
61436;BME280;47304;47.456;19.160;2024-03-08T07:13:15;100669.98;;;4.80;79.72
61436;BME280;47304;47.456;19.160;2024-03-08T07:15:44;100666.83;;;4.86;80.04
61436;BME280;47304;47.456;19.160;2024-03-08T07:18:12;100667.91;;;4.94;80.31
61436;BME280;47304;47.456;19.160;2024-03-08T07:20:40;100670.20;;;5.01;80.07
61436;BME280;47304;47.456;19.160;2024-03-08T07:23:09;100672.83;;;5.08;79.90
61436;BME280;47304;47.456;19.160;2024-03-08T07:25:37;100668.77;;;5.13;79.64
61436;BME280;47304;47.456;19.160;2024-03-08T07:28:06;100674.31;;;5.19;79.37
61436;BME280;47304;47.456;19.160;2024-03-08T07:30:34;100674.61;;;5.24;79.34
61436;BME280;47304;47.456;19.160;2024-03-08T07:33:02;100676.60;;;5.27;78.94
61436;BME280;47304;47.456;19.160;2024-03-08T07:35:31;100677.54;;;5.29;78.88
61436;BME280;47304;47.456;19.160;2024-03-08T07:37:59;100678.45;;;5.31;78.83
61436;BME280;47304;47.456;19.160;2024-03-08T07:40:27;100682.15;;;5.33;78.90
61436;BME280;47304;47.456;19.160;2024-03-08T07:42:55;100681.81;;;5.34;78.91
61436;BME280;47304;47.456;19.160;2024-03-08T07:45:23;100685.14;;;5.35;78.89
61436;BME280;47304;47.456;19.160;2024-03-08T07:47:52;100685.96;;;5.33;78.62
61436;BME280;47304;47.456;19.160;2024-03-08T07:50:20;100684.84;;;5.29;78.51
61436;BME280;47304;47.456;19.160;2024-03-08T07:52:48;100686.34;;;5.27;78.65
61436;BME280;47304;47.456;19.160;2024-03-08T07:55:17;100686.30;;;5.25;78.80
61436;BME280;47304;47.456;19.160;2024-03-08T07:57:45;100686.98;;;5.25;78.87
61436;BME280;47304;47.456;19.160;2024-03-08T08:00:15;100686.08;;;5.23;78.75
61436;BME280;47304;47.456;19.160;2024-03-08T08:02:43;100682.02;;;5.21;78.86
61436;BME280;47304;47.456;19.160;2024-03-08T08:05:11;100683.00;;;5.20;79.05
61436;BME280;47304;47.456;19.160;2024-03-08T08:07:40;100686.29;;;5.18;79.20
61436;BME280;47304;47.456;19.160;2024-03-08T08:10:09;100686.98;;;5.18;79.26
61436;BME280;47304;47.456;19.160;2024-03-08T08:12:37;100685.44;;;5.19;79.42
61436;BME280;47304;47.456;19.160;2024-03-08T08:15:07;100684.30;;;5.22;79.61
61436;BME280;47304;47.456;19.160;2024-03-08T08:17:35;100686.92;;;5.23;79.47
61436;BME280;47304;47.456;19.160;2024-03-08T08:20:05;100690.40;;;5.24;79.49
61436;BME280;47304;47.456;19.160;2024-03-08T08:22:34;100688.84;;;5.23;79.46
61436;BME280;47304;47.456;19.160;2024-03-08T08:25:02;100688.17;;;5.24;79.71
61436;BME280;47304;47.456;19.160;2024-03-08T08:27:30;100690.66;;;5.27;79.84
61436;BME280;47304;47.456;19.160;2024-03-08T08:29:59;100691.98;;;5.30;79.99
61436;BME280;47304;47.456;19.160;2024-03-08T08:32:27;100691.22;;;5.35;80.03
61436;BME280;47304;47.456;19.160;2024-03-08T08:34:55;100682.20;;;5.42;79.88
61436;BME280;47304;47.456;19.160;2024-03-08T08:37:23;100682.66;;;5.53;79.89
61436;BME280;47304;47.456;19.160;2024-03-08T08:39:51;100681.77;;;5.66;79.90
61436;BME280;47304;47.456;19.160;2024-03-08T08:42:20;100679.58;;;5.76;79.78
61436;BME280;47304;47.456;19.160;2024-03-08T08:44:48;100676.20;;;5.88;79.66
61436;BME280;47304;47.456;19.160;2024-03-08T08:47:16;100676.35;;;6.01;79.63
61436;BME280;47304;47.456;19.160;2024-03-08T08:49:44;100677.40;;;6.16;79.70
61436;BME280;47304;47.456;19.160;2024-03-08T08:52:13;100677.59;;;6.33;79.40
61436;BME280;47304;47.456;19.160;2024-03-08T08:54:41;100679.34;;;6.50;79.03
61436;BME280;47304;47.456;19.160;2024-03-08T08:57:09;100675.16;;;6.67;78.65
61436;BME280;47304;47.456;19.160;2024-03-08T08:59:37;100670.99;;;6.85;78.26
61436;BME280;47304;47.456;19.160;2024-03-08T09:02:06;100672.52;;;7.01;78.32
61436;BME280;47304;47.456;19.160;2024-03-08T09:04:34;100670.85;;;7.14;78.01
61436;BME280;47304;47.456;19.160;2024-03-08T09:07:02;100674.19;;;7.15;77.35
61436;BME280;47304;47.456;19.160;2024-03-08T09:09:31;100674.56;;;7.17;77.01
61436;BME280;47304;47.456;19.160;2024-03-08T09:11:59;100675.09;;;7.17;76.76
61436;BME280;47304;47.456;19.160;2024-03-08T09:14:27;100670.90;;;7.17;76.46
61436;BME280;47304;47.456;19.160;2024-03-08T09:16:55;100670.73;;;7.18;76.35
61436;BME280;47304;47.456;19.160;2024-03-08T09:19:24;100666.72;;;7.16;76.11
61436;BME280;47304;47.456;19.160;2024-03-08T09:21:52;100670.34;;;7.15;75.87
61436;BME280;47304;47.456;19.160;2024-03-08T09:24:21;100672.31;;;7.18;76.09
61436;BME280;47304;47.456;19.160;2024-03-08T09:26:49;100677.73;;;7.20;76.09
61436;BME280;47304;47.456;19.160;2024-03-08T09:29:18;100677.34;;;7.17;75.75
61436;BME280;47304;47.456;19.160;2024-03-08T09:31:46;100673.05;;;7.11;75.78
61436;BME280;47304;47.456;19.160;2024-03-08T09:34:15;100674.98;;;7.11;75.96
61436;BME280;47304;47.456;19.160;2024-03-08T09:36:43;100672.94;;;7.14;76.09
61436;BME280;47304;47.456;19.160;2024-03-08T09:39:11;100675.66;;;7.20;75.63
61436;BME280;47304;47.456;19.160;2024-03-08T09:41:40;100675.52;;;7.32;75.60
61436;BME280;47304;47.456;19.160;2024-03-08T09:44:08;100672.31;;;7.39;75.45
61436;BME280;47304;47.456;19.160;2024-03-08T09:46:36;100671.29;;;7.39;75.12
61436;BME280;47304;47.456;19.160;2024-03-08T09:49:04;100671.44;;;7.38;74.90
61436;BME280;47304;47.456;19.160;2024-03-08T09:51:34;100672.02;;;7.40;75.05
61436;BME280;47304;47.456;19.160;2024-03-08T09:54:02;100669.99;;;7.45;75.04
61436;BME280;47304;47.456;19.160;2024-03-08T09:56:33;100674.18;;;7.56;74.82
61436;BME280;47304;47.456;19.160;2024-03-08T09:59:02;100671.92;;;7.66;74.67
61436;BME280;47304;47.456;19.160;2024-03-08T10:01:30;100675.67;;;7.72;74.48
61436;BME280;47304;47.456;19.160;2024-03-08T10:03:59;100672.23;;;7.76;74.35
61436;BME280;47304;47.456;19.160;2024-03-08T10:06:27;100679.02;;;7.75;73.94
61436;BME280;47304;47.456;19.160;2024-03-08T10:08:56;100679.12;;;7.70;73.69
61436;BME280;47304;47.456;19.160;2024-03-08T10:11:24;100680.11;;;7.67;73.77
61436;BME280;47304;47.456;19.160;2024-03-08T10:13:53;100677.33;;;7.66;73.80
61436;BME280;47304;47.456;19.160;2024-03-08T10:16:21;100677.90;;;7.70;73.92
61436;BME280;47304;47.456;19.160;2024-03-08T10:18:49;100678.31;;;7.73;73.68
61436;BME280;47304;47.456;19.160;2024-03-08T10:21:17;100681.45;;;7.73;73.48
61436;BME280;47304;47.456;19.160;2024-03-08T10:23:46;100681.35;;;7.67;73.17
61436;BME280;47304;47.456;19.160;2024-03-08T10:26:15;100682.10;;;7.60;73.11
61436;BME280;47304;47.456;19.160;2024-03-08T10:28:45;100677.71;;;7.58;73.45
61436;BME280;47304;47.456;19.160;2024-03-08T10:31:14;100680.18;;;7.59;73.46
61436;BME280;47304;47.456;19.160;2024-03-08T10:33:43;100681.76;;;7.60;73.51
61436;BME280;47304;47.456;19.160;2024-03-08T10:36:14;100682.96;;;7.60;73.57
61436;BME280;47304;47.456;19.160;2024-03-08T10:38:43;100676.75;;;7.52;73.41
61436;BME280;47304;47.456;19.160;2024-03-08T10:41:12;100677.20;;;7.48;73.59
61436;BME280;47304;47.456;19.160;2024-03-08T10:43:52;100673.73;;;7.49;73.63
61436;BME280;47304;47.456;19.160;2024-03-08T10:46:37;100672.30;;;7.58;73.95
61436;BME280;47304;47.456;19.160;2024-03-08T10:49:17;100671.63;;;7.70;73.83
61436;BME280;47304;47.456;19.160;2024-03-08T10:51:45;100674.82;;;7.73;73.58
61436;BME280;47304;47.456;19.160;2024-03-08T10:54:16;100671.51;;;7.73;73.88
61436;BME280;47304;47.456;19.160;2024-03-08T10:56:44;100669.77;;;7.74;73.74
61436;BME280;47304;47.456;19.160;2024-03-08T10:59:14;100668.55;;;7.74;73.73
61436;BME280;47304;47.456;19.160;2024-03-08T11:01:42;100671.29;;;7.70;73.26
61436;BME280;47304;47.456;19.160;2024-03-08T11:04:10;100666.58;;;7.60;72.96
61436;BME280;47304;47.456;19.160;2024-03-08T11:06:44;100667.46;;;7.49;73.00
61436;BME280;47304;47.456;19.160;2024-03-08T11:09:30;100671.17;;;7.43;73.40
61436;BME280;47304;47.456;19.160;2024-03-08T11:12:19;100666.05;;;7.39;73.58
61436;BME280;47304;47.456;19.160;2024-03-08T11:14:49;100667.91;;;7.35;73.89
61436;BME280;47304;47.456;19.160;2024-03-08T11:17:22;100665.41;;;7.31;73.90
61436;BME280;47304;47.456;19.160;2024-03-08T11:19:56;100666.55;;;7.27;73.75
61436;BME280;47304;47.456;19.160;2024-03-08T11:22:28;100660.96;;;7.26;73.86
61436;BME280;47304;47.456;19.160;2024-03-08T11:24:59;100661.59;;;7.32;73.99
61436;BME280;47304;47.456;19.160;2024-03-08T11:27:31;100654.40;;;7.40;74.01
61436;BME280;47304;47.456;19.160;2024-03-08T11:30:03;100654.29;;;7.54;74.17
61436;BME280;47304;47.456;19.160;2024-03-08T11:32:32;100646.89;;;7.72;74.01
61436;BME280;47304;47.456;19.160;2024-03-08T11:35:00;100644.98;;;7.84;73.75
61436;BME280;47304;47.456;19.160;2024-03-08T11:37:29;100645.59;;;7.90;73.38
61436;BME280;47304;47.456;19.160;2024-03-08T11:39:57;100644.34;;;7.88;72.70
61436;BME280;47304;47.456;19.160;2024-03-08T11:42:26;100643.92;;;7.83;72.73
61436;BME280;47304;47.456;19.160;2024-03-08T11:44:54;100639.58;;;7.83;72.95
61436;BME280;47304;47.456;19.160;2024-03-08T11:47:23;100637.85;;;7.85;72.99
61436;BME280;47304;47.456;19.160;2024-03-08T11:49:51;100636.06;;;7.94;72.85
61436;BME280;47304;47.456;19.160;2024-03-08T11:52:20;100636.59;;;8.07;72.66
61436;BME280;47304;47.456;19.160;2024-03-08T11:54:54;100632.97;;;8.22;72.57
61436;BME280;47304;47.456;19.160;2024-03-08T11:57:23;100630.86;;;8.35;72.45
61436;BME280;47304;47.456;19.160;2024-03-08T11:59:55;100623.67;;;8.45;72.48
61436;BME280;47304;47.456;19.160;2024-03-08T12:02:24;100622.80;;;8.58;72.43
61436;BME280;47304;47.456;19.160;2024-03-08T12:04:58;100626.10;;;8.71;72.23
61436;BME280;47304;47.456;19.160;2024-03-08T12:07:27;100624.08;;;8.79;72.01
61436;BME280;47304;47.456;19.160;2024-03-08T12:10:16;100620.95;;;8.80;72.06
61436;BME280;47304;47.456;19.160;2024-03-08T12:12:49;100621.11;;;8.80;71.55
61436;BME280;47304;47.456;19.160;2024-03-08T12:15:17;100617.08;;;8.78;70.69
61436;BME280;47304;47.456;19.160;2024-03-08T12:17:47;100618.98;;;8.77;70.07
61436;BME280;47304;47.456;19.160;2024-03-08T12:20:19;100615.28;;;8.73;69.56
61436;BME280;47304;47.456;19.160;2024-03-08T12:22:48;100615.07;;;8.70;69.33
61436;BME280;47304;47.456;19.160;2024-03-08T12:25:17;100616.08;;;8.66;68.87
61436;BME280;47304;47.456;19.160;2024-03-08T12:27:45;100618.62;;;8.59;68.81
61436;BME280;47304;47.456;19.160;2024-03-08T12:30:22;100613.80;;;8.50;68.69
61436;BME280;47304;47.456;19.160;2024-03-08T12:32:53;100610.71;;;8.44;68.95
61436;BME280;47304;47.456;19.160;2024-03-08T12:35:22;100614.68;;;8.39;69.01
61436;BME280;47304;47.456;19.160;2024-03-08T12:37:52;100611.67;;;8.36;69.03
61436;BME280;47304;47.456;19.160;2024-03-08T12:40:21;100610.41;;;8.33;69.32
61436;BME280;47304;47.456;19.160;2024-03-08T12:42:53;100610.38;;;8.32;69.49
61436;BME280;47304;47.456;19.160;2024-03-08T12:45:22;100608.99;;;8.32;69.72
61436;BME280;47304;47.456;19.160;2024-03-08T12:47:50;100609.67;;;8.30;69.44
61436;BME280;47304;47.456;19.160;2024-03-08T12:50:18;100607.52;;;8.26;69.43
61436;BME280;47304;47.456;19.160;2024-03-08T12:52:47;100605.95;;;8.24;69.26
61436;BME280;47304;47.456;19.160;2024-03-08T12:55:15;100604.68;;;8.22;69.25
61436;BME280;47304;47.456;19.160;2024-03-08T12:57:44;100598.06;;;8.23;69.64